createdAt,value
2023-01-12T00:03:28.971Z,2.92
2023-01-12T00:08:33.700Z,2.83
2023-01-12T00:13:40.709Z,2.83
2023-01-12T00:18:47.940Z,2.47
2023-01-12T00:23:50.813Z,2.60
2023-01-12T00:28:53.642Z,2.88
2023-01-12T00:33:57.924Z,2.58
2023-01-12T00:39:00.853Z,2.53
2023-01-12T00:44:21.563Z,2.55
2023-01-12T00:49:25.767Z,3.78
2023-01-12T00:54:28.695Z,2.55
2023-01-12T00:59:31.806Z,2.72
2023-01-12T01:04:36.115Z,3.25
2023-01-12T01:09:38.996Z,2.72
2023-01-12T01:14:41.879Z,2.75
2023-01-12T01:19:46.194Z,2.25
2023-01-12T01:24:49.008Z,2.60
2023-01-12T01:29:52.027Z,2.55
2023-01-12T01:34:56.213Z,2.15
2023-01-12T01:39:59.035Z,2.33
2023-01-12T01:45:03.516Z,2.00
2023-01-12T01:50:15.697Z,3.00
2023-01-12T01:55:23.367Z,2.50
2023-01-12T02:00:26.853Z,1.87
2023-01-12T02:05:31.205Z,2.28
2023-01-12T02:10:34.403Z,1.98
2023-01-12T02:16:01.638Z,1.88
2023-01-12T02:21:26.309Z,1.88
2023-01-12T02:27:06.646Z,2.30
2023-01-12T02:32:20.757Z,2.22
2023-01-12T02:37:33.632Z,1.80
2023-01-12T02:42:42.391Z,2.22
2023-01-12T02:47:52.497Z,2.00
2023-01-12T02:52:58.585Z,2.20
2023-01-12T02:58:02.969Z,2.33
2023-01-12T03:03:07.873Z,2.08
2023-01-12T03:08:15.097Z,2.47
2023-01-12T03:13:19.016Z,3.13
2023-01-12T03:18:31.675Z,2.10
2023-01-12T03:23:42.071Z,1.40
2023-01-12T03:28:51.098Z,2.28
2023-01-12T03:33:56.135Z,1.55
2023-01-12T03:39:06.068Z,1.45
2023-01-12T03:44:16.400Z,1.40
2023-01-12T03:49:26.305Z,1.67
2023-01-12T03:54:30.840Z,1.60
2023-01-12T03:59:35.115Z,1.90
2023-01-12T04:04:39.476Z,1.63
2023-01-12T04:09:42.474Z,2.33
2023-01-12T04:14:48.145Z,2.20
2023-01-12T04:19:52.697Z,2.00
2023-01-12T04:24:58.038Z,2.22
2023-01-12T04:36:30.751Z,2.70
2023-01-12T04:41:33.594Z,2.88
2023-01-12T04:46:36.543Z,2.15
2023-01-12T04:51:40.838Z,2.15
2023-01-12T04:56:43.628Z,2.33
2023-01-12T05:01:46.756Z,2.13
2023-01-12T05:06:50.933Z,2.20
2023-01-12T05:11:53.718Z,2.40
2023-01-12T05:16:56.579Z,3.08
2023-01-12T05:22:00.820Z,3.35
2023-01-12T05:27:03.769Z,3.92
2023-01-12T05:32:06.581Z,2.85
2023-01-12T05:37:10.955Z,3.13
2023-01-12T05:42:31.146Z,3.03
2023-01-12T05:47:34.020Z,2.42
2023-01-12T05:52:38.153Z,2.67
2023-01-12T05:57:41.050Z,3.03
2023-01-12T06:02:44.019Z,3.17
2023-01-12T06:07:48.205Z,3.30
2023-01-12T06:13:08.750Z,2.80
2023-01-12T06:18:11.663Z,3.30
2023-01-12T06:23:15.804Z,2.67
2023-01-12T06:28:18.635Z,3.30
2023-01-12T06:33:21.495Z,2.85
2023-01-12T06:38:27.574Z,3.35
2023-01-12T06:43:30.638Z,4.00
2023-01-12T06:48:39.207Z,3.97
2023-01-12T06:53:43.798Z,4.38
2023-01-12T06:58:46.590Z,4.28
2023-01-12T07:03:49.362Z,4.00
2023-01-12T07:08:53.499Z,4.55
2023-01-12T07:13:56.619Z,3.45
2023-01-12T07:18:59.410Z,3.28
2023-01-12T07:24:04.047Z,3.38
2023-01-12T07:29:07.037Z,3.53
2023-01-12T07:34:09.823Z,3.00
2023-01-12T07:39:14.199Z,2.75
2023-01-12T07:44:17.131Z,2.70
2023-01-12T07:49:20.115Z,3.88
2023-01-12T07:54:24.844Z,6.05
2023-01-12T07:59:27.974Z,3.22
2023-01-12T08:04:30.851Z,3.33
2023-01-12T08:09:35.136Z,2.08
2023-01-12T08:14:40.359Z,1.77
2023-01-12T08:19:47.424Z,2.72
2023-01-12T08:24:54.306Z,1.65
2023-01-12T08:29:58.761Z,1.63
2023-01-12T08:35:04.399Z,1.38
2023-01-12T08:40:10.854Z,1.50
2023-01-12T08:45:13.688Z,1.15
2023-01-12T08:50:16.460Z,1.10
2023-01-12T08:55:20.928Z,1.40
2023-01-12T09:00:23.967Z,1.25
2023-01-12T09:05:27.971Z,1.40
2023-01-12T09:10:32.173Z,1.90
2023-01-12T09:15:35.007Z,1.42
2023-01-12T09:20:37.843Z,1.05
2023-01-12T09:25:42.027Z,1.00
2023-01-12T09:30:44.834Z,0.70
2023-01-12T09:35:47.657Z,1.30
2023-01-12T09:40:51.956Z,1.15
2023-01-12T09:46:12.227Z,0.90
2023-01-12T09:51:25.729Z,1.35
2023-01-12T09:56:34.527Z,0.90
2023-01-12T10:01:38.496Z,0.70
2023-01-12T10:06:42.132Z,1.58
2023-01-12T10:11:53.542Z,0.80
2023-01-12T10:17:08.909Z,1.25
2023-01-12T10:22:39.381Z,0.90
2023-01-12T10:27:46.136Z,1.70
2023-01-12T10:32:49.532Z,1.25
2023-01-12T10:38:01.031Z,1.00
2023-01-12T10:43:24.020Z,1.00
2023-01-12T10:48:27.055Z,0.80
2023-01-12T10:53:38.736Z,0.98
2023-01-12T10:58:53.716Z,1.13
2023-01-12T11:04:06.836Z,0.90
2023-01-12T11:09:23.186Z,1.02
2023-01-12T11:14:30.975Z,0.93
2023-01-12T11:19:42.272Z,0.83
2023-01-12T11:24:52.959Z,1.13
2023-01-12T11:30:00.007Z,1.23
2023-01-12T11:35:09.648Z,1.10
2023-01-12T11:40:24.661Z,1.10
2023-01-12T11:45:41.224Z,0.98
2023-01-12T11:50:45.942Z,1.73
2023-01-12T11:56:10.884Z,1.08
2023-01-12T12:01:23.235Z,0.80
2023-01-12T12:06:45.220Z,1.10
2023-01-12T12:11:56.728Z,1.00
2023-01-12T12:17:08.269Z,0.75
2023-01-12T12:22:22.319Z,0.90
2023-01-12T12:27:39.498Z,0.73
2023-01-12T12:32:50.666Z,1.50
2023-01-12T12:38:05.911Z,1.90
2023-01-12T12:43:34.497Z,2.38
2023-01-12T12:48:45.010Z,1.80
2023-01-12T12:53:49.718Z,1.30
2023-01-12T12:58:53.850Z,2.10
2023-01-12T13:03:58.970Z,1.30
2023-01-12T13:09:03.506Z,1.73
2023-01-12T13:14:17.639Z,1.10
2023-01-12T13:19:40.203Z,1.70
2023-01-12T13:24:43.386Z,2.22
2023-01-12T13:29:46.259Z,1.45
2023-01-12T13:34:50.471Z,1.80
2023-01-12T13:40:01.129Z,1.30
2023-01-12T13:45:04.469Z,1.20
2023-01-12T13:50:17.734Z,1.60
2023-01-12T13:55:22.194Z,2.08
2023-01-12T14:00:25.773Z,1.20
2023-01-12T14:05:42.333Z,1.40
2023-01-12T14:10:54.946Z,1.77
2023-01-12T14:16:19.573Z,1.40
2023-01-12T14:21:26.905Z,2.00
2023-01-12T14:26:31.720Z,1.20
2023-01-12T14:31:39.429Z,1.20
2023-01-12T14:36:46.347Z,1.10
2023-01-12T14:42:09.013Z,1.60
2023-01-12T14:47:24.805Z,1.58
2023-01-12T14:52:32.939Z,1.63
2023-01-12T14:57:37.098Z,1.58
2023-01-12T15:02:41.934Z,1.60
2023-01-12T15:07:58.033Z,2.53
2023-01-12T15:13:22.850Z,2.83
2023-01-12T15:18:42.968Z,2.05
2023-01-12T15:24:05.772Z,1.92
2023-01-12T15:29:09.245Z,2.60
2023-01-12T15:34:13.211Z,3.60
2023-01-12T15:39:18.102Z,2.80
2023-01-12T15:44:22.559Z,4.30
2023-01-12T15:49:25.509Z,2.47
2023-01-12T15:54:29.671Z,3.58
2023-01-12T15:59:32.563Z,3.15
2023-01-12T16:04:42.685Z,4.10
2023-01-12T16:09:49.801Z,3.92
2023-01-12T16:14:52.643Z,3.60
2023-01-12T16:19:55.585Z,4.80
2023-01-12T16:24:59.928Z,4.53
2023-01-12T16:30:02.851Z,9.65
2023-01-12T16:35:06.163Z,6.30
2023-01-12T16:40:11.862Z,2.90
2023-01-12T16:45:14.896Z,2.85
2023-01-12T16:50:17.851Z,3.13
2023-01-12T16:55:21.901Z,3.20
2023-01-12T17:00:26.275Z,3.72
2023-01-12T17:05:29.811Z,4.03
2023-01-12T17:10:34.721Z,4.95
2023-01-12T17:15:37.756Z,3.70
2023-01-12T17:20:41.139Z,3.85
2023-01-12T17:25:45.591Z,3.47
2023-01-12T17:30:48.741Z,3.10
2023-01-12T17:35:52.839Z,2.78
2023-01-12T17:41:00.522Z,2.50
2023-01-12T17:46:04.178Z,2.80
2023-01-12T17:51:11.686Z,2.50
2023-01-12T17:56:15.969Z,2.40
2023-01-12T18:01:18.929Z,6.93
2023-01-12T18:06:29.146Z,3.90
2023-01-12T18:11:34.163Z,7.45
2023-01-12T18:16:37.445Z,2.75
2023-01-12T18:21:40.261Z,2.47
2023-01-12T18:26:44.406Z,5.50
2023-01-12T18:31:47.267Z,4.80
2023-01-12T18:36:50.084Z,6.18
2023-01-12T18:42:22.275Z,3.13
2023-01-12T18:47:42.430Z,2.35
2023-01-12T18:53:02.894Z,3.28
2023-01-12T18:58:07.139Z,1.88
2023-01-12T19:03:09.931Z,1.73
2023-01-12T19:08:30.798Z,2.20
2023-01-12T19:13:52.748Z,4.63
2023-01-12T19:18:55.791Z,1.50
2023-01-12T19:24:16.152Z,1.30
2023-01-12T19:29:20.380Z,1.70
2023-01-12T19:34:29.224Z,7.15
2023-01-12T19:39:59.498Z,1.50
2023-01-12T19:45:07.123Z,1.10
2023-01-12T19:50:13.225Z,1.13
2023-01-12T19:55:18.789Z,1.35
2023-01-12T20:00:24.767Z,1.80
2023-01-12T20:05:27.698Z,1.90
2023-01-12T20:10:30.888Z,2.05
2023-01-12T20:15:38.712Z,2.22
2023-01-12T20:20:43.958Z,2.42
2023-01-12T20:25:46.820Z,2.30
2023-01-12T20:30:50.966Z,2.38
2023-01-12T20:35:53.822Z,2.22
2023-01-12T20:40:56.815Z,2.63
2023-01-12T20:46:01.445Z,2.65
2023-01-12T20:51:08.508Z,2.42
2023-01-12T20:56:11.686Z,2.10
2023-01-12T21:01:16.778Z,2.08
2023-01-12T21:06:20.144Z,2.63
2023-01-12T21:11:23.485Z,2.35
2023-01-12T21:16:27.947Z,2.28
2023-01-12T21:21:30.957Z,3.10
2023-01-12T21:26:34.108Z,2.20
2023-01-12T21:31:38.478Z,2.33
2023-01-12T21:36:41.268Z,2.20
2023-01-12T21:42:01.476Z,2.28
2023-01-12T21:47:05.896Z,2.47
2023-01-12T21:52:08.814Z,2.75
2023-01-12T21:57:11.778Z,4.00
2023-01-12T22:02:16.122Z,2.20
2023-01-12T22:07:19.142Z,1.88
2023-01-12T22:12:22.421Z,1.90
2023-01-12T22:17:26.560Z,2.00
2023-01-12T22:22:29.492Z,1.90
2023-01-12T22:27:32.353Z,1.83
2023-01-12T22:32:36.518Z,2.20
2023-01-12T22:37:40.259Z,2.10
2023-01-12T22:43:00.632Z,1.77
2023-01-12T22:48:05.175Z,1.67
2023-01-12T22:53:07.947Z,1.45
2023-01-12T22:58:11.015Z,1.75
2023-01-12T23:03:15.317Z,1.70
2023-01-12T23:08:18.374Z,1.58
2023-01-12T23:13:22.187Z,1.50
2023-01-12T23:18:29.277Z,1.42
2023-01-12T23:23:32.117Z,1.60
2023-01-12T23:28:36.581Z,1.90
2023-01-12T23:33:43.040Z,2.38
2023-01-12T23:38:46.089Z,2.03
2023-01-12T23:43:51.205Z,2.10
2023-01-12T23:48:59.220Z,1.63
2023-01-12T23:54:03.426Z,1.40
2023-01-12T23:59:06.227Z,1.35
